EDDR/SCN METAR and TAF weather

Enter ICAO airport designator
Station Type Date Time Source
EDDR METAR 2021/07/30 07:50 UTC NOAA

EDDR 300750Z 20005KT 170V230 9999 FEW046 19/12 Q1012 NOSIG


Station Type Date Time Source
EDDR Decoded METAR 2021/07/30 07:50 UTC NOAA

Saarbruecken / Ensheim, Germany (EDDR) 49-13N 007-07E 320M
Jul 30, 2021 - 03:50 AM EDT / 2021.07.30 0750 UTC
Wind: from the SSW (200 degrees) at 6 MPH (5 KT) (direction variable):0
Visibility: greater than 7 mile(s):0
Sky conditions: mostly clear
Temperature: 66 F (19 C)
Dew Point: 53 F (12 C)
Relative Humidity: 63%
Pressure (altimeter): 29.88 in. Hg (1012 hPa)
ob: EDDR 300750Z 20005KT 170V230 9999 FEW046 19/12 Q1012 NOSIG
cycle: 8

Station Type Date Time Source
EDDR TAF 2021/07/30 06:27 UTC NOAA

TAF EDDR 300500Z 3006/3106 17004KT 9999 FEW045
BECMG 3008/3010 24011KT
TEMPO 3013/3018 25015G25KT
BECMG 3023/3101 23006KT

Example: see airport list